createdAt,value
2018-11-23T00:01:09.627Z,101375.97
2018-11-23T00:03:39.919Z,101380.91
2018-11-23T00:06:09.914Z,101377.53
2018-11-23T00:08:39.992Z,101377.41
2018-11-23T00:11:10.516Z,101379.77
2018-11-23T00:13:40.222Z,101388.41
2018-11-23T00:16:09.721Z,101386.49
2018-11-23T00:18:39.673Z,101390.71
2018-11-23T00:21:10.077Z,101401.19
2018-11-23T00:23:40.402Z,101395.89
2018-11-23T00:26:10.323Z,101400.10
2018-11-23T00:28:40.323Z,101402.95
2018-11-23T00:31:09.810Z,101402.98
2018-11-23T00:33:39.223Z,101403.78
2018-11-23T00:36:08.719Z,101414.80
2018-11-23T00:38:38.550Z,101415.39
2018-11-23T00:41:07.958Z,101417.36
2018-11-23T00:43:38.161Z,101413.34
2018-11-23T00:46:08.490Z,101424.05
2018-11-23T00:48:38.595Z,101423.71
2018-11-23T00:51:08.113Z,101426.11
2018-11-23T00:53:38.032Z,101433.09
2018-11-23T00:56:08.011Z,101436.30
2018-11-23T00:58:38.116Z,101437.50
2018-11-23T01:01:08.469Z,101441.73
2018-11-23T01:03:38.270Z,101452.17
2018-11-23T01:06:08.650Z,101461.62
2018-11-23T01:08:39.053Z,101452.22
2018-11-23T01:11:09.115Z,101462.27
2018-11-23T01:13:39.225Z,101468.21
2018-11-23T01:16:09.912Z,101473.84
2018-11-23T01:18:40.011Z,101478.56
2018-11-23T01:21:10.075Z,101476.02
2018-11-23T01:23:39.926Z,101474.88
2018-11-23T01:26:10.480Z,101475.02
2018-11-23T01:28:40.633Z,101481.53
2018-11-23T01:31:10.571Z,101475.56
2018-11-23T01:33:40.845Z,101477.34
2018-11-23T01:36:10.875Z,101479.16
2018-11-23T01:38:41.001Z,101478.90
2018-11-23T01:41:11.038Z,101484.05
2018-11-23T01:43:41.125Z,101491.56
2018-11-23T01:46:11.190Z,101501.86
2018-11-23T01:48:40.970Z,101501.95
2018-11-23T01:51:11.350Z,101514.56
2018-11-23T01:53:41.120Z,101517.48
2018-11-23T01:56:11.524Z,101523.08
2018-11-23T01:58:41.273Z,101523.42
2018-11-23T02:01:11.451Z,101527.34
2018-11-23T02:03:41.433Z,101532.63
2018-11-23T02:06:11.629Z,101536.16
2018-11-23T02:08:41.428Z,101546.50
2018-11-23T02:11:11.732Z,101543.89
2018-11-23T02:13:41.521Z,101552.20
2018-11-23T02:16:11.511Z,101554.26
2018-11-23T02:18:41.258Z,101561.50
2018-11-23T02:21:11.523Z,101575.95
2018-11-23T02:23:41.766Z,101582.24
2018-11-23T02:26:11.919Z,101583.06
2018-11-23T02:28:41.632Z,101585.27
2018-11-23T02:31:11.996Z,101590.09
2018-11-23T02:33:41.889Z,101588.30
2018-11-23T02:36:12.474Z,101590.14
2018-11-23T02:38:42.325Z,101601.95
2018-11-23T02:41:12.321Z,101603.17
2018-11-23T02:43:42.719Z,101595.42
2018-11-23T02:46:12.785Z,101594.34
2018-11-23T02:48:43.379Z,101605.39
2018-11-23T02:51:13.602Z,101603.02
2018-11-23T02:53:43.751Z,101607.83
2018-11-23T02:56:14.416Z,101605.55
2018-11-23T02:58:44.636Z,101611.59
2018-11-23T03:01:15.201Z,101611.98
2018-11-23T03:03:45.438Z,101608.91
2018-11-23T03:06:16.778Z,101614.39
2018-11-23T03:08:46.403Z,101615.41
2018-11-23T03:11:16.469Z,101609.66
2018-11-23T03:13:46.121Z,101613.30
2018-11-23T03:16:16.311Z,101615.11
2018-11-23T03:18:46.078Z,101618.47
2018-11-23T03:21:16.298Z,101614.33
2018-11-23T03:23:46.608Z,101615.81
2018-11-23T03:26:16.225Z,101611.98
2018-11-23T03:28:46.346Z,101607.31
2018-11-23T03:31:16.041Z,101606.14
2018-11-23T03:33:46.068Z,101605.45
2018-11-23T03:36:16.199Z,101608.70
2018-11-23T03:38:46.481Z,101603.43
2018-11-23T03:41:16.353Z,101605.63
2018-11-23T03:43:46.553Z,101601.27
2018-11-23T03:46:16.359Z,101602.56
2018-11-23T03:48:46.396Z,101594.33
2018-11-23T03:51:16.411Z,101597.03
2018-11-23T03:53:46.778Z,101597.45
2018-11-23T03:56:16.727Z,101590.58
2018-11-23T03:58:47.040Z,101600.00
2018-11-23T04:01:17.127Z,101597.14
2018-11-23T04:03:47.196Z,101589.73
2018-11-23T04:06:16.805Z,101581.94
2018-11-23T04:08:47.128Z,101581.81
2018-11-23T04:11:17.122Z,101585.83
2018-11-23T04:13:47.365Z,101586.52
2018-11-23T04:16:17.475Z,101587.23
2018-11-23T04:18:47.707Z,101589.61
2018-11-23T04:21:17.837Z,101585.90
2018-11-23T04:23:47.633Z,101583.28
2018-11-23T04:26:24.362Z,101577.28
2018-11-23T04:28:48.004Z,101575.70
2018-11-23T04:31:18.204Z,101562.56
2018-11-23T04:33:48.495Z,101556.81
2018-11-23T04:36:19.288Z,101569.91
2018-11-23T04:38:49.186Z,101554.78
2018-11-23T04:41:19.291Z,101552.67
2018-11-23T04:43:49.759Z,101546.89
2018-11-23T04:46:19.642Z,101534.52
2018-11-23T04:48:49.602Z,101543.24
2018-11-23T04:51:19.434Z,101528.40
2018-11-23T04:53:49.471Z,101523.62
2018-11-23T04:56:19.714Z,101518.52
2018-11-23T04:58:50.001Z,101517.17
2018-11-23T05:01:20.037Z,101512.84
2018-11-23T05:03:50.487Z,101504.46
2018-11-23T05:06:20.806Z,101495.47
2018-11-23T05:08:50.592Z,101498.47
2018-11-23T05:11:21.161Z,101487.95
2018-11-23T05:13:51.147Z,101482.36
2018-11-23T05:16:21.040Z,101480.50
2018-11-23T05:18:50.968Z,101476.31
2018-11-23T05:21:20.996Z,101466.42
2018-11-23T05:23:50.716Z,101457.73
2018-11-23T05:26:21.114Z,101449.83
2018-11-23T05:28:51.043Z,101454.35
2018-11-23T05:31:21.277Z,101442.47
2018-11-23T05:33:51.387Z,101442.41
2018-11-23T05:36:21.803Z,101444.03
2018-11-23T05:38:51.852Z,101433.58
2018-11-23T05:41:22.074Z,101425.95
2018-11-23T05:43:52.381Z,101422.99
2018-11-23T05:46:22.795Z,101405.66
2018-11-23T05:48:52.757Z,101407.25
2018-11-23T05:51:22.716Z,101400.75
2018-11-23T05:53:52.959Z,101402.83
2018-11-23T05:56:23.043Z,101397.27
2018-11-23T05:58:53.120Z,101396.09
2018-11-23T06:01:23.207Z,101399.53
2018-11-23T06:03:53.225Z,101395.80
2018-11-23T06:06:23.237Z,101392.25
2018-11-23T06:08:53.282Z,101382.73
2018-11-23T06:11:23.487Z,101378.59
2018-11-23T06:13:53.592Z,101376.63
2018-11-23T06:16:23.555Z,101369.33
2018-11-23T06:18:54.077Z,101368.61
2018-11-23T06:21:24.264Z,101356.95
2018-11-23T06:23:54.567Z,101358.02
2018-11-23T06:26:24.793Z,101350.16
2018-11-23T06:28:54.718Z,101342.17
2018-11-23T06:31:24.548Z,101340.83
2018-11-23T06:33:54.879Z,101336.17
2018-11-23T06:36:24.884Z,101326.77
2018-11-23T06:38:54.993Z,101324.83
2018-11-23T06:41:25.003Z,101323.94
2018-11-23T06:43:55.195Z,101317.60
2018-11-23T06:46:25.272Z,101315.98
2018-11-23T06:48:55.682Z,101311.94
2018-11-23T06:51:25.801Z,101317.00
2018-11-23T06:53:56.003Z,101311.67
2018-11-23T06:56:26.554Z,101297.78
2018-11-23T06:58:56.957Z,101292.59
2018-11-23T07:01:27.482Z,101292.94
2018-11-23T07:03:57.516Z,101289.53
2018-11-23T07:06:27.315Z,101278.27
2018-11-23T07:08:57.275Z,101267.78
2018-11-23T07:11:27.162Z,101264.11
2018-11-23T07:14:03.746Z,101263.79
2018-11-23T07:16:28.480Z,101265.09
2018-11-23T07:18:58.553Z,101259.41
2018-11-23T07:21:28.633Z,101249.76
2018-11-23T07:23:59.154Z,101247.63
2018-11-23T07:26:28.999Z,101238.16
2018-11-23T07:28:58.718Z,101239.06
2018-11-23T07:31:29.044Z,101237.28
2018-11-23T07:33:59.038Z,101235.80
2018-11-23T07:36:29.116Z,101228.77
2018-11-23T07:38:59.206Z,101227.06
2018-11-23T07:41:29.275Z,101227.30
2018-11-23T07:43:59.113Z,101215.34
2018-11-23T07:46:29.358Z,101221.74
2018-11-23T07:48:59.222Z,101211.75
2018-11-23T07:51:29.066Z,101206.17
2018-11-23T07:53:59.083Z,101208.98
2018-11-23T07:56:29.044Z,101205.13
2018-11-23T07:58:59.636Z,101203.12
2018-11-23T08:01:29.595Z,101205.88
2018-11-23T08:03:59.673Z,101207.72
2018-11-23T08:06:29.439Z,101198.55
2018-11-23T08:08:59.834Z,101189.52
2018-11-23T08:11:29.682Z,101196.98
2018-11-23T08:13:59.724Z,101184.38
2018-11-23T08:16:29.761Z,101183.58
2018-11-23T08:19:00.314Z,101179.27
2018-11-23T08:21:30.309Z,101182.17
2018-11-23T08:24:00.118Z,101180.02
2018-11-23T08:26:30.070Z,101172.39
2018-11-23T08:29:00.155Z,101172.91
2018-11-23T08:31:30.354Z,101173.28
2018-11-23T08:34:00.640Z,101164.01
2018-11-23T08:36:30.719Z,101163.14
2018-11-23T08:39:04.707Z,101162.66
2018-11-23T08:41:31.954Z,101159.41
2018-11-23T08:44:02.112Z,101157.76
2018-11-23T08:46:31.892Z,101155.08
2018-11-23T08:49:01.888Z,101150.41
2018-11-23T08:51:31.717Z,101143.39
2018-11-23T08:54:01.959Z,101147.19
2018-11-23T08:56:31.680Z,101141.81
2018-11-23T08:59:02.083Z,101137.09
2018-11-23T09:01:31.834Z,101138.30
2018-11-23T09:04:02.024Z,101140.08
2018-11-23T09:06:31.997Z,101137.55
2018-11-23T09:09:02.053Z,101131.84
2018-11-23T09:11:31.971Z,101130.70
2018-11-23T09:14:02.233Z,101128.32
2018-11-23T09:16:32.126Z,101128.14
2018-11-23T09:19:02.098Z,101126.03
2018-11-23T09:21:32.232Z,101132.17
2018-11-23T09:24:02.250Z,101129.98
2018-11-23T09:26:32.270Z,101123.37
2018-11-23T09:29:01.875Z,101126.86
2018-11-23T09:31:32.209Z,101120.86
2018-11-23T09:34:01.676Z,101122.12
2018-11-23T09:36:31.687Z,101122.52
2018-11-23T09:39:01.754Z,101122.20
2018-11-23T09:41:32.163Z,101117.34
2018-11-23T09:44:01.894Z,101111.38
2018-11-23T09:46:31.882Z,101112.54
2018-11-23T09:49:02.234Z,101112.44
2018-11-23T09:51:32.823Z,101118.34
2018-11-23T09:54:02.671Z,101118.73
2018-11-23T09:56:32.480Z,101113.86
2018-11-23T09:59:02.182Z,101119.11
2018-11-23T10:01:32.165Z,101110.88
2018-11-23T10:04:01.813Z,101108.97
2018-11-23T10:06:32.028Z,101113.30
2018-11-23T10:09:02.480Z,101116.44
2018-11-23T10:11:32.354Z,101114.92
2018-11-23T10:14:02.280Z,101113.27
2018-11-23T10:16:33.435Z,101127.14
2018-11-23T10:19:04.960Z,101128.05
2018-11-23T10:21:34.520Z,101130.81
2018-11-23T10:24:04.390Z,101128.34
2018-11-23T10:26:34.440Z,101129.67
2018-11-23T10:29:04.446Z,101126.89
2018-11-23T10:31:35.104Z,101125.69
2018-11-23T10:34:05.110Z,101117.70
2018-11-23T10:36:34.991Z,101120.70
2018-11-23T10:39:04.464Z,101123.34
2018-11-23T10:44:04.287Z,101122.08
2018-11-23T10:46:34.153Z,101126.53
2018-11-23T10:49:04.037Z,101123.42
2018-11-23T10:51:34.072Z,101126.45
2018-11-23T10:54:04.829Z,101123.16
2018-11-23T10:56:34.919Z,101123.90
2018-11-23T10:59:04.962Z,101121.75
2018-11-23T11:01:35.357Z,101122.12
2018-11-23T11:04:04.721Z,101119.88
2018-11-23T11:06:35.153Z,101119.22
2018-11-23T11:09:04.939Z,101116.05
2018-11-23T11:11:34.635Z,101116.90
2018-11-23T11:14:04.250Z,101109.58
2018-11-23T11:16:35.802Z,101116.34
2018-11-23T11:19:05.303Z,101113.77
2018-11-23T11:21:35.600Z,101112.93
2018-11-23T11:24:05.833Z,101112.19
2018-11-23T11:26:36.510Z,101109.89
2018-11-23T11:29:06.624Z,101107.92
2018-11-23T11:31:37.287Z,101112.42
2018-11-23T11:34:07.165Z,101111.93
2018-11-23T11:36:37.908Z,101117.23
2018-11-23T11:39:08.486Z,101115.88
2018-11-23T11:41:38.921Z,101120.71
2018-11-23T11:44:09.174Z,101117.02
2018-11-23T11:46:38.991Z,101126.84
2018-11-23T11:49:09.075Z,101117.92
2018-11-23T11:51:39.233Z,101116.56
2018-11-23T11:54:09.672Z,101124.80
2018-11-23T11:56:40.889Z,101125.83
2018-11-23T11:59:11.122Z,101124.38
2018-11-23T12:01:41.149Z,101124.63
2018-11-23T12:04:11.879Z,101132.94
2018-11-23T12:06:41.442Z,101132.67
2018-11-23T12:09:11.844Z,101132.69
2018-11-23T12:11:42.556Z,101136.25
2018-11-23T12:14:13.436Z,101135.26
2018-11-23T12:16:43.678Z,101145.68
2018-11-23T12:19:14.248Z,101145.83
2018-11-23T12:21:44.465Z,101146.99
2018-11-23T12:24:15.040Z,101154.98
2018-11-23T12:26:45.319Z,101156.16
2018-11-23T12:29:15.991Z,101161.44
2018-11-23T12:31:46.565Z,101160.69
2018-11-23T12:34:16.804Z,101165.69
2018-11-23T12:36:46.712Z,101162.23
2018-11-23T12:39:17.436Z,101165.56
2018-11-23T12:41:47.627Z,101175.95
2018-11-23T12:44:18.024Z,101170.36
2018-11-23T12:46:48.316Z,101180.76
2018-11-23T12:49:18.838Z,101178.11
2018-11-23T12:51:49.436Z,101179.29
2018-11-23T12:54:19.559Z,101180.76
2018-11-23T12:56:49.916Z,101174.28
2018-11-23T12:59:19.997Z,101180.75
2018-11-23T13:01:50.343Z,101178.11
2018-11-23T13:04:20.544Z,101179.77
2018-11-23T13:06:50.604Z,101184.63
2018-11-23T13:09:20.702Z,101188.62
2018-11-23T13:11:51.325Z,101194.55
2018-11-23T13:14:21.445Z,101196.83
2018-11-23T13:16:53.312Z,101205.06
2018-11-23T13:19:22.878Z,101207.91
2018-11-23T13:21:53.038Z,101209.22
2018-11-23T13:24:24.007Z,101210.10
2018-11-23T13:26:55.000Z,101205.89
2018-11-23T13:29:24.511Z,101209.95
2018-11-23T13:31:54.879Z,101210.63
2018-11-23T13:34:25.006Z,101210.23
2018-11-23T13:36:55.082Z,101213.84
2018-11-23T13:39:24.764Z,101216.16
2018-11-23T13:41:55.203Z,101219.62
2018-11-23T13:44:24.895Z,101224.39
2018-11-23T13:46:55.077Z,101228.78
2018-11-23T13:49:25.392Z,101237.14
2018-11-23T13:51:55.513Z,101243.98
2018-11-23T13:54:25.394Z,101249.69
2018-11-23T13:57:00.789Z,101249.38
2018-11-23T13:59:36.885Z,101249.59
2018-11-23T14:02:14.301Z,101258.62
2018-11-23T14:04:51.166Z,101260.98
2018-11-23T14:07:23.757Z,101256.84
2018-11-23T14:09:58.403Z,101261.68
2018-11-23T14:12:36.299Z,101259.35
2018-11-23T14:15:11.429Z,101263.97
2018-11-23T14:17:46.348Z,101266.27
2018-11-23T14:20:22.484Z,101264.59
2018-11-23T14:22:54.637Z,101272.45
2018-11-23T14:25:24.879Z,101275.38
2018-11-23T14:27:55.635Z,101274.91
2018-11-23T14:30:26.345Z,101283.09
2018-11-23T14:32:56.999Z,101275.16
2018-11-23T14:35:26.767Z,101273.36
2018-11-23T14:37:58.118Z,101277.83
2018-11-23T14:40:28.088Z,101270.56
2018-11-23T14:42:58.714Z,101272.99
2018-11-23T14:45:30.562Z,101271.78
2018-11-23T14:48:06.347Z,101277.34
2018-11-23T14:50:42.038Z,101275.60
2018-11-23T14:55:57.513Z,101287.12
2018-11-23T14:58:33.922Z,101284.80
2018-11-23T15:01:08.997Z,101285.31
2018-11-23T15:03:47.276Z,101292.03
2018-11-23T15:06:22.841Z,101294.05
2018-11-23T15:08:59.207Z,101291.44
2018-11-23T15:11:34.106Z,101291.20
2018-11-23T15:14:04.926Z,101294.19
2018-11-23T15:16:34.915Z,101299.48
2018-11-23T15:19:05.243Z,101307.72
2018-11-23T15:24:20.048Z,101312.09
2018-11-23T15:26:50.684Z,101311.38
2018-11-23T15:29:21.033Z,101315.64
2018-11-23T15:31:51.444Z,101314.81
2018-11-23T15:34:21.520Z,101310.66
2018-11-23T15:36:51.403Z,101313.98
2018-11-23T15:39:21.921Z,101321.25
2018-11-23T15:41:52.001Z,101317.94
2018-11-23T15:44:21.526Z,101318.70
2018-11-23T15:46:55.197Z,101312.95
2018-11-23T15:49:32.885Z,101314.54
2018-11-23T15:52:03.569Z,101316.05
2018-11-23T15:54:34.450Z,101308.15
2018-11-23T15:57:10.643Z,101314.27
2018-11-23T15:59:49.076Z,101320.59
2018-11-23T16:02:25.232Z,101327.20
2018-11-23T16:10:18.284Z,101319.42
2018-11-23T16:12:54.997Z,101315.34
2018-11-23T16:15:31.835Z,101323.48
2018-11-23T16:18:06.236Z,101317.98
2018-11-23T16:20:42.290Z,101311.64
2018-11-23T16:23:19.225Z,101311.17
2018-11-23T16:25:55.405Z,101307.83
2018-11-23T16:28:26.803Z,101311.17
2018-11-23T16:30:56.946Z,101310.56
2018-11-23T16:33:27.477Z,101311.16
2018-11-23T16:35:57.560Z,101311.99
2018-11-23T16:38:27.601Z,101315.96
2018-11-23T16:40:57.915Z,101316.55
2018-11-23T16:43:28.042Z,101318.08
2018-11-23T16:45:58.121Z,101319.89
2018-11-23T16:48:28.593Z,101316.55
2018-11-23T16:50:58.719Z,101312.86
2018-11-23T16:53:28.803Z,101309.12
2018-11-23T16:55:59.185Z,101314.86
2018-11-23T16:58:29.270Z,101310.20
2018-11-23T17:00:59.624Z,101313.44
2018-11-23T17:03:29.637Z,101310.06
2018-11-23T17:05:59.704Z,101304.05
2018-11-23T17:08:39.659Z,101302.88
2018-11-23T17:11:15.356Z,101299.41
2018-11-23T17:13:50.943Z,101307.08
2018-11-23T17:16:28.424Z,101305.61
2018-11-23T17:19:05.489Z,101302.16
2018-11-23T17:21:41.323Z,101306.11
2018-11-23T17:24:18.325Z,101305.98
2018-11-23T17:32:21.187Z,101301.67
2018-11-23T17:34:57.922Z,101302.76
2018-11-23T17:37:36.598Z,101303.45
2018-11-23T17:40:08.475Z,101300.48
2018-11-23T17:42:45.676Z,101295.80
2018-11-23T17:45:21.217Z,101297.59
2018-11-23T17:47:58.836Z,101291.00
2018-11-23T17:50:34.926Z,101296.88
2018-11-23T17:53:13.268Z,101293.08
2018-11-23T17:55:50.314Z,101294.59
2018-11-23T17:58:28.944Z,101285.85
2018-11-23T18:01:04.836Z,101282.73
2018-11-23T18:06:19.400Z,101277.38
2018-11-23T18:08:57.996Z,101271.91
2018-11-23T18:11:32.754Z,101271.27
2018-11-23T18:14:12.045Z,101272.81
2018-11-23T18:16:49.226Z,101272.35
2018-11-23T18:19:27.861Z,101271.75
2018-11-23T18:22:05.247Z,101261.63
2018-11-23T18:24:43.510Z,101264.61
2018-11-23T18:27:20.314Z,101259.66
2018-11-23T18:29:58.353Z,101262.30
2018-11-23T18:32:33.652Z,101257.97
2018-11-23T18:35:11.600Z,101256.06
2018-11-23T18:40:26.085Z,101248.13
2018-11-23T18:43:00.433Z,101246.81
2018-11-23T18:45:31.773Z,101250.19
2018-11-23T18:48:04.103Z,101245.38
2018-11-23T18:50:37.306Z,101242.48
2018-11-23T18:53:10.798Z,101245.14
2018-11-23T18:55:44.204Z,101252.33
2018-11-23T18:58:14.553Z,101246.16
2018-11-23T19:00:44.925Z,101246.55
2018-11-23T19:03:15.585Z,101249.32
2018-11-23T19:05:45.954Z,101242.12
2018-11-23T19:08:16.033Z,101243.63
2018-11-23T19:10:48.599Z,101245.52
2018-11-23T19:13:19.697Z,101243.47
2018-11-23T19:15:49.642Z,101238.33
2018-11-23T19:18:20.208Z,101241.91
2018-11-23T19:20:55.045Z,101236.90
2018-11-23T19:23:25.050Z,101236.97
2018-11-23T19:25:55.877Z,101233.45
2018-11-23T19:28:25.681Z,101238.97
2018-11-23T19:30:56.104Z,101234.64
2018-11-23T19:33:26.035Z,101237.89
2018-11-23T19:35:56.161Z,101235.59
2018-11-23T19:38:26.552Z,101234.55
2018-11-23T19:40:56.442Z,101238.13
2018-11-23T19:43:26.286Z,101233.72
2018-11-23T19:45:56.042Z,101233.56
2018-11-23T19:48:26.233Z,101236.10
2018-11-23T19:50:56.127Z,101239.09
2018-11-23T19:53:26.993Z,101231.44
2018-11-23T19:55:57.162Z,101229.44
2018-11-23T19:58:27.355Z,101234.55
2018-11-23T20:00:57.606Z,101226.25
2018-11-23T20:03:27.666Z,101232.06
2018-11-23T20:05:58.005Z,101227.09
2018-11-23T20:08:27.722Z,101225.65
2018-11-23T20:10:58.003Z,101214.52
2018-11-23T20:13:27.719Z,101222.04
2018-11-23T20:16:00.091Z,101219.58
2018-11-23T20:18:29.715Z,101222.36
2018-11-23T20:20:59.712Z,101218.72
2018-11-23T20:23:30.556Z,101222.81
2018-11-23T20:26:00.633Z,101214.13
2018-11-23T20:28:30.468Z,101220.09
2018-11-23T20:31:00.633Z,101210.91
2018-11-23T20:33:30.717Z,101211.88
2018-11-23T20:36:00.955Z,101214.34
2018-11-23T20:38:31.074Z,101205.03
2018-11-23T20:41:01.282Z,101204.79
2018-11-23T20:43:32.153Z,101204.88
2018-11-23T20:46:02.350Z,101206.84
2018-11-23T20:48:32.360Z,101195.84
2018-11-23T20:51:02.191Z,101195.09
2018-11-23T20:53:32.211Z,101189.98
2018-11-23T20:56:02.920Z,101190.58
2018-11-23T20:58:32.754Z,101190.14
2018-11-23T21:01:02.759Z,101194.62
2018-11-23T21:03:33.146Z,101187.03
2018-11-23T21:06:04.159Z,101193.56
2018-11-23T21:08:33.918Z,101189.59
2018-11-23T21:11:03.724Z,101191.02
2018-11-23T21:13:33.569Z,101182.87
2018-11-23T21:16:03.761Z,101188.52
2018-11-23T21:18:33.283Z,101190.73
2018-11-23T21:21:04.836Z,101187.52
2018-11-23T21:23:34.876Z,101190.58
2018-11-23T21:26:04.561Z,101187.52
2018-11-23T21:28:33.917Z,101183.76
2018-11-23T21:31:05.397Z,101187.58
2018-11-23T21:33:34.726Z,101182.45
2018-11-23T21:36:04.755Z,101184.29
2018-11-23T21:38:34.449Z,101184.61
2018-11-23T21:41:04.361Z,101185.30
2018-11-23T21:43:33.861Z,101182.39
2018-11-23T21:46:05.281Z,101184.45
2018-11-23T21:48:34.926Z,101190.67
2018-11-23T21:51:04.968Z,101194.47
2018-11-23T21:53:34.404Z,101191.16
2018-11-23T21:56:09.659Z,101191.66
2018-11-23T21:58:39.070Z,101194.92
2018-11-23T22:01:08.759Z,101191.74
2018-11-23T22:03:38.642Z,101199.14
2018-11-23T22:06:08.026Z,101194.17
2018-11-23T22:08:37.945Z,101196.28
2018-11-23T22:11:08.156Z,101201.67
2018-11-23T22:13:38.584Z,101201.96
2018-11-23T22:16:09.092Z,101208.05
2018-11-23T22:18:39.246Z,101202.05
2018-11-23T22:21:09.245Z,101196.44
2018-11-23T22:23:39.519Z,101197.57
2018-11-23T22:26:09.380Z,101196.69
2018-11-23T22:28:39.678Z,101200.98
2018-11-23T22:31:10.727Z,101196.92
2018-11-23T22:33:40.840Z,101200.22
2018-11-23T22:36:10.495Z,101202.25
2018-11-23T22:38:40.688Z,101200.33
2018-11-23T22:41:10.478Z,101205.10
2018-11-23T22:43:40.204Z,101207.92
2018-11-23T22:46:10.625Z,101212.33
2018-11-23T22:48:40.993Z,101214.04
2018-11-23T22:51:11.393Z,101210.77
2018-11-23T22:53:41.484Z,101222.63
2018-11-23T22:56:11.600Z,101226.16
2018-11-23T22:58:41.275Z,101224.73
2018-11-23T23:01:11.484Z,101229.09
2018-11-23T23:03:41.583Z,101232.41
2018-11-23T23:06:12.162Z,101236.78
2018-11-23T23:08:42.602Z,101241.14
2018-11-23T23:11:12.671Z,101236.38
2018-11-23T23:13:43.053Z,101241.48
2018-11-23T23:16:13.185Z,101247.03
2018-11-23T23:18:43.117Z,101244.24
2018-11-23T23:21:13.304Z,101245.55
2018-11-23T23:23:43.380Z,101253.28
2018-11-23T23:26:14.108Z,101253.28
2018-11-23T23:28:44.169Z,101254.53
2018-11-23T23:31:14.551Z,101257.41
2018-11-23T23:33:44.664Z,101261.34
2018-11-23T23:36:15.042Z,101265.62
2018-11-23T23:38:45.446Z,101260.52
2018-11-23T23:41:15.525Z,101265.16
2018-11-23T23:43:46.235Z,101270.59
2018-11-23T23:46:16.153Z,101269.87
2018-11-23T23:48:46.718Z,101267.19
2018-11-23T23:51:18.077Z,101277.37
2018-11-23T23:53:48.808Z,101281.63
2018-11-23T23:56:19.311Z,101287.34
2018-11-23T23:58:49.761Z,101288.48
